sensor_id;sensor_type;location;lat;lon;timestamp;pressure;altitude;pressure_sealevel;temperature;humidity
5753;BME280;2901;42.140;24.760;2023-03-15T00:00:38;98629.81;;;6.84;73.09
5753;BME280;2901;42.140;24.760;2023-03-15T00:03:03;98615.28;;;6.77;74.29
5753;BME280;2901;42.140;24.760;2023-03-15T00:05:29;98637.50;;;6.90;74.46
5753;BME280;2901;42.140;24.760;2023-03-15T00:07:56;98629.75;;;6.92;74.04
5753;BME280;2901;42.140;24.760;2023-03-15T00:10:22;98632.38;;;6.87;75.33
5753;BME280;2901;42.140;24.760;2023-03-15T00:12:47;98628.09;;;6.83;75.72
5753;BME280;2901;42.140;24.760;2023-03-15T00:15:13;98627.25;;;6.81;75.72
5753;BME280;2901;42.140;24.760;2023-03-15T00:17:39;98623.78;;;6.90;75.42
5753;BME280;2901;42.140;24.760;2023-03-15T00:20:06;98624.66;;;6.87;76.12
5753;BME280;2901;42.140;24.760;2023-03-15T00:22:32;98622.13;;;6.76;76.54
5753;BME280;2901;42.140;24.760;2023-03-15T00:24:57;98617.03;;;6.70;77.06
5753;BME280;2901;42.140;24.760;2023-03-15T00:27:22;98621.34;;;6.64;78.44
5753;BME280;2901;42.140;24.760;2023-03-15T00:29:48;98618.81;;;6.55;78.85
5753;BME280;2901;42.140;24.760;2023-03-15T00:32:13;98615.47;;;6.36;80.07
5753;BME280;2901;42.140;24.760;2023-03-15T00:34:39;98613.75;;;6.38;nan
5753;BME280;2901;42.140;24.760;2023-03-15T00:37:04;98618.88;;;6.37;79.91
5753;BME280;2901;42.140;24.760;2023-03-15T00:39:29;98612.91;;;6.38;80.51
5753;BME280;2901;42.140;24.760;2023-03-15T00:41:55;98617.22;;;6.26;80.75
5753;BME280;2901;42.140;24.760;2023-03-15T00:44:23;98608.66;;;6.20;81.73
5753;BME280;2901;42.140;24.760;2023-03-15T00:46:49;98604.41;;;6.14;82.66
5753;BME280;2901;42.140;24.760;2023-03-15T00:49:14;98598.44;;;6.12;83.21
5753;BME280;2901;42.140;24.760;2023-03-15T00:51:40;98596.69;;;6.13;82.90
5753;BME280;2901;42.140;24.760;2023-03-15T00:54:05;98592.41;;;6.21;82.47
5753;BME280;2901;42.140;24.760;2023-03-15T00:56:31;98601.81;;;6.23;82.53
5753;BME280;2901;42.140;24.760;2023-03-15T00:58:57;98599.28;;;6.10;84.00
5753;BME280;2901;42.140;24.760;2023-03-15T01:01:27;98598.44;;;6.12;83.27
5753;BME280;2901;42.140;24.760;2023-03-15T01:03:53;98594.16;;;6.04;83.28
5753;BME280;2901;42.140;24.760;2023-03-15T01:06:20;98584.75;;;6.04;83.01
5753;BME280;2901;42.140;24.760;2023-03-15T01:08:46;98583.91;;;6.01;83.04
5753;BME280;2901;42.140;24.760;2023-03-15T01:11:14;98577.03;;;6.03;83.65
5753;BME280;2901;42.140;24.760;2023-03-15T01:13:40;98574.50;;;5.80;84.56
5753;BME280;2901;42.140;24.760;2023-03-15T01:16:06;98575.34;;;5.81;85.85
5753;BME280;2901;42.140;24.760;2023-03-15T01:18:32;98569.38;;;5.92;85.40
5753;BME280;2901;42.140;24.760;2023-03-15T01:20:58;98569.34;;;6.00;84.52
5753;BME280;2901;42.140;24.760;2023-03-15T01:23:24;98569.34;;;5.98;84.67
5753;BME280;2901;42.140;24.760;2023-03-15T01:25:49;98579.63;;;6.01;85.74
5753;BME280;2901;42.140;24.760;2023-03-15T01:28:15;98587.34;;;5.92;85.92
5753;BME280;2901;42.140;24.760;2023-03-15T01:30:50;98582.22;;;5.82;87.48
5753;BME280;2901;42.140;24.760;2023-03-15T01:33:16;98581.38;;;5.86;88.27
5753;BME280;2901;42.140;24.760;2023-03-15T01:35:41;98566.81;;;5.86;88.37
5753;BME280;2901;42.140;24.760;2023-03-15T01:38:07;98564.22;;;5.86;88.45
5753;BME280;2901;42.140;24.760;2023-03-15T01:40:32;98565.09;;;5.82;88.79
5753;BME280;2901;42.140;24.760;2023-03-15T01:48:45;98551.38;;;5.83;89.42
5753;BME280;2901;42.140;24.760;2023-03-15T01:54:02;98552.31;;;5.49;91.44
5753;BME280;2901;42.140;24.760;2023-03-15T01:56:30;98566.84;;;5.56;91.44
5753;BME280;2901;42.140;24.760;2023-03-15T01:58:58;98566.84;;;5.47;91.96
5753;BME280;2901;42.140;24.760;2023-03-15T02:01:24;98571.13;;;5.54;91.62
5753;BME280;2901;42.140;24.760;2023-03-15T02:03:59;98566.88;;;5.53;92.06
5753;BME280;2901;42.140;24.760;2023-03-15T02:06:27;98566.84;;;5.47;92.07
5753;BME280;2901;42.140;24.760;2023-03-15T02:08:58;98554.03;;;5.50;92.21
5753;BME280;2901;42.140;24.760;2023-03-15T02:11:26;98553.13;;;5.57;92.16
5753;BME280;2901;42.140;24.760;2023-03-15T02:13:53;98544.59;;;5.61;91.99
5753;BME280;2901;42.140;24.760;2023-03-15T02:16:20;98553.13;;;5.67;91.57
5753;BME280;2901;42.140;24.760;2023-03-15T02:18:46;98545.44;;;5.60;92.11
5753;BME280;2901;42.140;24.760;2023-03-15T02:21:41;98549.69;;;5.70;92.14
5753;BME280;2901;42.140;24.760;2023-03-15T02:27:07;98535.13;;;5.75;90.68
5753;BME280;2901;42.140;24.760;2023-03-15T02:29:33;98535.13;;;5.75;91.09
5753;BME280;2901;42.140;24.760;2023-03-15T02:31:58;98547.09;;;5.85;90.58
5753;BME280;2901;42.140;24.760;2023-03-15T02:34:24;98537.69;;;5.83;90.75
5753;BME280;2901;42.140;24.760;2023-03-15T02:36:51;98537.69;;;5.83;90.74
5753;BME280;2901;42.140;24.760;2023-03-15T02:39:18;98541.09;;;5.85;90.56
5753;BME280;2901;42.140;24.760;2023-03-15T02:41:48;98524.00;;;5.79;91.18
5753;BME280;2901;42.140;24.760;2023-03-15T02:44:33;98547.97;;;5.90;90.81
5753;BME280;2901;42.140;24.760;2023-03-15T02:47:05;98535.97;;;5.88;91.03
5753;BME280;2901;42.140;24.760;2023-03-15T02:49:35;98544.50;;;5.84;90.81
5753;BME280;2901;42.140;24.760;2023-03-15T02:52:02;98535.09;;;5.84;91.55
5753;BME280;2901;42.140;24.760;2023-03-15T02:54:27;98527.44;;;5.75;91.63
5753;BME280;2901;42.140;24.760;2023-03-15T02:56:53;98530.88;;;5.75;91.84
5753;BME280;2901;42.140;24.760;2023-03-15T02:59:18;98524.00;;;5.78;92.37
5753;BME280;2901;42.140;24.760;2023-03-15T03:01:43;98527.44;;;5.75;92.32
5753;BME280;2901;42.140;24.760;2023-03-15T03:04:10;98522.34;;;5.66;92.08
5753;BME280;2901;42.140;24.760;2023-03-15T03:06:36;98525.72;;;5.66;92.64
5753;BME280;2901;42.140;24.760;2023-03-15T03:09:02;98522.34;;;5.58;92.56
5753;BME280;2901;42.140;24.760;2023-03-15T03:11:27;98523.19;;;5.65;93.42
5753;BME280;2901;42.140;24.760;2023-03-15T03:13:53;98526.59;;;5.61;93.24
5753;BME280;2901;42.140;24.760;2023-03-15T03:16:18;98526.63;;;5.55;93.92
5753;BME280;2901;42.140;24.760;2023-03-15T03:18:43;98516.38;;;5.46;93.92
5753;BME280;2901;42.140;24.760;2023-03-15T03:21:09;98526.66;;;5.46;94.83
5753;BME280;2901;42.140;24.760;2023-03-15T03:23:35;98515.50;;;5.51;94.41
5753;BME280;2901;42.140;24.760;2023-03-15T03:26:01;98504.34;;;5.57;94.70
5753;BME280;2901;42.140;24.760;2023-03-15T03:28:29;98500.09;;;5.51;94.39
5753;BME280;2901;42.140;24.760;2023-03-15T03:30:55;98512.97;;;5.50;95.18
5753;BME280;2901;42.140;24.760;2023-03-15T03:33:22;98509.56;;;5.43;95.35
5753;BME280;2901;42.140;24.760;2023-03-15T03:35:48;98515.53;;;5.41;95.46
5753;BME280;2901;42.140;24.760;2023-03-15T03:38:14;98508.69;;;5.31;96.47
5753;BME280;2901;42.140;24.760;2023-03-15T03:40:40;98507.84;;;5.24;96.49
5753;BME280;2901;42.140;24.760;2023-03-15T03:43:06;98511.28;;;5.15;97.25
5753;BME280;2901;42.140;24.760;2023-03-15T03:45:32;98507.03;;;5.10;97.19
5753;BME280;2901;42.140;24.760;2023-03-15T03:47:58;98509.59;;;5.19;98.02
5753;BME280;2901;42.140;24.760;2023-03-15T03:50:23;98504.44;;;5.22;97.27
5753;BME280;2901;42.140;24.760;2023-03-15T03:52:49;98493.34;;;5.03;98.25
5753;BME280;2901;42.140;24.760;2023-03-15T03:55:14;98491.63;;;5.13;97.67
5753;BME280;2901;42.140;24.760;2023-03-15T03:57:40;98494.22;;;4.96;98.32
5753;BME280;2901;42.140;24.760;2023-03-15T04:00:11;98504.47;;;4.99;98.16
5753;BME280;2901;42.140;24.760;2023-03-15T04:02:39;98512.16;;;5.11;97.71
5753;BME280;2901;42.140;24.760;2023-03-15T04:05:07;98513.84;;;5.15;98.30
5753;BME280;2901;42.140;24.760;2023-03-15T04:07:33;98503.56;;;5.24;97.50
5753;BME280;2901;42.140;24.760;2023-03-15T04:09:58;98508.72;;;5.26;97.73
5753;BME280;2901;42.140;24.760;2023-03-15T04:12:26;98505.28;;;5.24;97.09
5753;BME280;2901;42.140;24.760;2023-03-15T04:14:52;98502.72;;;5.18;98.07
5753;BME280;2901;42.140;24.760;2023-03-15T04:17:17;98501.03;;;5.17;98.18
5753;BME280;2901;42.140;24.760;2023-03-15T04:19:43;98519.00;;;5.20;97.96
5753;BME280;2901;42.140;24.760;2023-03-15T04:22:12;98510.44;;;5.16;97.52
5753;BME280;2901;42.140;24.760;2023-03-15T04:24:40;98500.19;;;5.03;98.04
5753;BME280;2901;42.140;24.760;2023-03-15T04:27:05;98483.94;;;5.02;98.52
5753;BME280;2901;42.140;24.760;2023-03-15T04:29:31;98480.50;;;4.94;99.13
5753;BME280;2901;42.140;24.760;2023-03-15T04:31:56;98469.41;;;4.97;99.26
5753;BME280;2901;42.140;24.760;2023-03-15T04:34:27;98486.50;;;4.99;98.92
5753;BME280;2901;42.140;24.760;2023-03-15T04:36:53;98486.53;;;4.93;99.38
5753;BME280;2901;42.140;24.760;2023-03-15T04:39:19;98485.66;;;4.93;99.37
5753;BME280;2901;42.140;24.760;2023-03-15T04:41:44;98497.59;;;4.91;99.40
5753;BME280;2901;42.140;24.760;2023-03-15T04:44:10;98492.47;;;4.88;99.50
5753;BME280;2901;42.140;24.760;2023-03-15T04:46:35;98493.34;;;4.87;99.49
5753;BME280;2901;42.140;24.760;2023-03-15T04:49:00;98494.19;;;4.78;99.53
5753;BME280;2901;42.140;24.760;2023-03-15T04:51:27;98504.47;;;4.83;99.75
5753;BME280;2901;42.140;24.760;2023-03-15T04:53:53;98495.91;;;4.76;100.00
5753;BME280;2901;42.140;24.760;2023-03-15T04:56:18;98492.47;;;4.85;100.00
5753;BME280;2901;42.140;24.760;2023-03-15T04:58:43;98493.34;;;4.90;99.79
5753;BME280;2901;42.140;24.760;2023-03-15T05:01:09;98495.91;;;4.97;100.00
5753;BME280;2901;42.140;24.760;2023-03-15T05:03:35;98505.34;;;4.94;99.62
5753;BME280;2901;42.140;24.760;2023-03-15T05:06:01;98506.16;;;4.91;99.94
5753;BME280;2901;42.140;24.760;2023-03-15T05:08:33;98494.19;;;4.81;100.00
5753;BME280;2901;42.140;24.760;2023-03-15T05:10:59;98491.66;;;4.83;100.00
5753;BME280;2901;42.140;24.760;2023-03-15T05:13:25;98495.91;;;4.88;99.97
5753;BME280;2901;42.140;24.760;2023-03-15T05:15:50;98497.63;;;4.95;100.00
5753;BME280;2901;42.140;24.760;2023-03-15T05:18:15;98504.47;;;4.99;99.87
5753;BME280;2901;42.140;24.760;2023-03-15T05:20:41;98512.16;;;5.10;99.71
5753;BME280;2901;42.140;24.760;2023-03-15T05:23:06;98503.63;;;4.93;99.36
5753;BME280;2901;42.140;24.760;2023-03-15T05:25:32;98512.16;;;4.93;100.00
5753;BME280;2901;42.140;24.760;2023-03-15T05:27:58;98516.44;;;5.09;99.81
5753;BME280;2901;42.140;24.760;2023-03-15T05:30:23;98516.44;;;5.03;99.64
5753;BME280;2901;42.140;24.760;2023-03-15T05:32:48;98509.59;;;4.96;99.70
5753;BME280;2901;42.140;24.760;2023-03-15T05:35:14;98500.19;;;4.89;99.29
5753;BME280;2901;42.140;24.760;2023-03-15T05:37:39;98505.31;;;4.89;99.76
5753;BME280;2901;42.140;24.760;2023-03-15T05:40:07;98496.75;;;4.95;100.00
5753;BME280;2901;42.140;24.760;2023-03-15T05:42:33;98505.34;;;4.94;99.74
5753;BME280;2901;42.140;24.760;2023-03-15T05:44:59;98498.47;;;4.93;100.00
5753;BME280;2901;42.140;24.760;2023-03-15T05:47:24;98499.31;;;4.92;100.00
5753;BME280;2901;42.140;24.760;2023-03-15T05:49:49;98497.63;;;5.06;99.94
5753;BME280;2901;42.140;24.760;2023-03-15T05:52:16;98489.91;;;5.12;100.00
5753;BME280;2901;42.140;24.760;2023-03-15T05:54:42;98498.47;;;5.11;99.24
5753;BME280;2901;42.140;24.760;2023-03-15T05:57:07;98500.19;;;5.00;99.27
5753;BME280;2901;42.140;24.760;2023-03-15T05:59:32;98500.19;;;5.03;99.56
5753;BME280;2901;42.140;24.760;2023-03-15T06:01:58;98490.78;;;5.09;99.22
5753;BME280;2901;42.140;24.760;2023-03-15T06:04:23;98497.59;;;5.22;98.94
5753;BME280;2901;42.140;24.760;2023-03-15T06:06:50;98501.00;;;5.40;98.63
5753;BME280;2901;42.140;24.760;2023-03-15T06:09:15;98503.53;;;5.50;98.48
5753;BME280;2901;42.140;24.760;2023-03-15T06:11:40;98501.84;;;5.49;97.34
5753;BME280;2901;42.140;24.760;2023-03-15T06:14:06;98505.22;;;5.69;97.47
5753;BME280;2901;42.140;24.760;2023-03-15T06:16:31;98502.59;;;5.89;96.00
5753;BME280;2901;42.140;24.760;2023-03-15T06:18:57;98496.50;;;6.11;95.60
5753;BME280;2901;42.140;24.760;2023-03-15T06:21:22;98490.41;;;6.23;94.43
5753;BME280;2901;42.140;24.760;2023-03-15T06:23:47;98501.41;;;6.49;93.42
5753;BME280;2901;42.140;24.760;2023-03-15T06:26:13;98490.19;;;6.64;92.56
5753;BME280;2901;42.140;24.760;2023-03-15T06:28:39;98491.91;;;6.65;91.91
5753;BME280;2901;42.140;24.760;2023-03-15T06:31:09;98491.78;;;6.77;92.02
5753;BME280;2901;42.140;24.760;2023-03-15T06:33:34;98493.50;;;6.78;90.16
5753;BME280;2901;42.140;24.760;2023-03-15T06:36:00;98481.59;;;6.65;90.51
5753;BME280;2901;42.140;24.760;2023-03-15T06:38:25;98485.88;;;6.67;90.78
5753;BME280;2901;42.140;24.760;2023-03-15T06:40:51;98479.03;;;6.63;90.39
5753;BME280;2901;42.140;24.760;2023-03-15T06:43:16;98487.44;;;6.84;89.71
5753;BME280;2901;42.140;24.760;2023-03-15T06:45:45;98491.66;;;6.92;90.34
5753;BME280;2901;42.140;24.760;2023-03-15T06:48:12;98493.31;;;6.99;89.63
5753;BME280;2901;42.140;24.760;2023-03-15T06:50:37;98490.75;;;7.01;88.90
5753;BME280;2901;42.140;24.760;2023-03-15T06:53:03;98500.19;;;6.99;88.66
5753;BME280;2901;42.140;24.760;2023-03-15T06:55:28;98499.41;;;6.91;89.55
5753;BME280;2901;42.140;24.760;2023-03-15T06:57:53;98493.41;;;6.89;90.63
5753;BME280;2901;42.140;24.760;2023-03-15T07:00:19;98491.53;;;7.06;90.16
5753;BME280;2901;42.140;24.760;2023-03-15T07:02:44;98489.69;;;7.21;89.13
5753;BME280;2901;42.140;24.760;2023-03-15T07:05:10;98488.69;;;7.36;89.21
5753;BME280;2901;42.140;24.760;2023-03-15T07:07:35;98485.09;;;7.54;86.99
5753;BME280;2901;42.140;24.760;2023-03-15T07:10:01;98473.78;;;7.67;86.28
5753;BME280;2901;42.140;24.760;2023-03-15T07:12:26;98477.06;;;7.79;85.94
5753;BME280;2901;42.140;24.760;2023-03-15T07:14:52;98470.97;;;7.87;85.75
5753;BME280;2901;42.140;24.760;2023-03-15T07:17:17;98478.69;;;7.85;85.28
5753;BME280;2901;42.140;24.760;2023-03-15T07:19:42;98483.84;;;7.87;85.54
5753;BME280;2901;42.140;24.760;2023-03-15T07:22:08;98482.94;;;7.89;85.14
5753;BME280;2901;42.140;24.760;2023-03-15T07:24:33;98477.75;;;7.91;85.11
5753;BME280;2901;42.140;24.760;2023-03-15T07:26:59;98472.34;;;8.13;84.52
5753;BME280;2901;42.140;24.760;2023-03-15T07:29:24;98479.81;;;8.34;82.96
5753;BME280;2901;42.140;24.760;2023-03-15T07:31:50;98464.84;;;8.59;82.47
5753;BME280;2901;42.140;24.760;2023-03-15T07:34:16;98470.56;;;8.78;81.50
5753;BME280;2901;42.140;24.760;2023-03-15T07:36:42;98468.94;;;8.71;81.17
5753;BME280;2901;42.140;24.760;2023-03-15T07:39:07;98459.91;;;8.96;80.12
5753;BME280;2901;42.140;24.760;2023-03-15T07:41:32;98465.06;;;8.96;79.77
5753;BME280;2901;42.140;24.760;2023-03-15T07:43:58;98467.72;;;8.93;79.57
5753;BME280;2901;42.140;24.760;2023-03-15T07:46:23;98460.28;;;8.73;80.05
5753;BME280;2901;42.140;24.760;2023-03-15T07:48:49;98460.50;;;8.60;80.49
5753;BME280;2901;42.140;24.760;2023-03-15T07:51:14;98464.19;;;8.44;82.20
5753;BME280;2901;42.140;24.760;2023-03-15T07:53:40;98464.06;;;8.53;81.53
5753;BME280;2901;42.140;24.760;2023-03-15T07:56:05;98452.03;;;8.52;82.83
5753;BME280;2901;42.140;24.760;2023-03-15T07:58:31;98449.25;;;8.65;81.33
5753;BME280;2901;42.140;24.760;2023-03-15T08:00:56;98450.28;;;8.54;82.13
5753;BME280;2901;42.140;24.760;2023-03-15T08:03:23;98466.34;;;8.72;81.68
5753;BME280;2901;42.140;24.760;2023-03-15T08:05:49;98454.09;;;8.83;80.79
5753;BME280;2901;42.140;24.760;2023-03-15T08:08:15;98462.38;;;9.04;79.65
5753;BME280;2901;42.140;24.760;2023-03-15T08:10:40;98450.25;;;9.07;79.30
5753;BME280;2901;42.140;24.760;2023-03-15T08:13:07;98434.47;;;9.22;78.83
5753;BME280;2901;42.140;24.760;2023-03-15T08:15:32;98428.41;;;9.26;78.60
5753;BME280;2901;42.140;24.760;2023-03-15T08:17:58;98421.13;;;9.47;78.06
5753;BME280;2901;42.140;24.760;2023-03-15T08:20:24;98406.00;;;9.28;78.27
5753;BME280;2901;42.140;24.760;2023-03-15T08:22:49;98411.16;;;9.28;78.36
5753;BME280;2901;42.140;24.760;2023-03-15T08:25:20;98404.22;;;9.29;78.40
5753;BME280;2901;42.140;24.760;2023-03-15T08:27:47;98392.88;;;9.37;78.41
5753;BME280;2901;42.140;24.760;2023-03-15T08:30:14;98383.44;;;9.36;77.89
5753;BME280;2901;42.140;24.760;2023-03-15T08:32:41;98394.97;;;9.62;76.35
5753;BME280;2901;42.140;24.760;2023-03-15T08:35:07;98378.28;;;9.78;75.90
5753;BME280;2901;42.140;24.760;2023-03-15T08:37:32;98368.53;;;9.90;74.58
5753;BME280;2901;42.140;24.760;2023-03-15T08:39:58;98369.03;;;10.06;72.94
5753;BME280;2901;42.140;24.760;2023-03-15T08:42:34;98368.25;;;10.03;72.27
5753;BME280;2901;42.140;24.760;2023-03-15T08:45:00;98375.06;;;10.07;72.72
5753;BME280;2901;42.140;24.760;2023-03-15T08:47:26;98388.66;;;10.16;72.99
5753;BME280;2901;42.140;24.760;2023-03-15T08:49:52;98386.81;;;10.21;72.31
5753;BME280;2901;42.140;24.760;2023-03-15T08:52:18;98379.34;;;10.46;71.92
5753;BME280;2901;42.140;24.760;2023-03-15T08:54:44;98390.06;;;10.66;70.35
5753;BME280;2901;42.140;24.760;2023-03-15T08:57:09;98386.84;;;10.57;70.43
5753;BME280;2901;42.140;24.760;2023-03-15T08:59:37;98387.25;;;10.74;69.96
5753;BME280;2901;42.140;24.760;2023-03-15T09:02:02;98384.94;;;10.97;68.29
5753;BME280;2901;42.140;24.760;2023-03-15T09:04:29;98381.00;;;11.16;67.25
5753;BME280;2901;42.140;24.760;2023-03-15T09:06:54;98369.78;;;11.16;65.73
5753;BME280;2901;42.140;24.760;2023-03-15T09:09:19;98376.94;;;11.37;65.13
5753;BME280;2901;42.140;24.760;2023-03-15T09:11:45;98363.88;;;11.41;65.29
5753;BME280;2901;42.140;24.760;2023-03-15T09:14:10;98349.66;;;11.25;64.59
5753;BME280;2901;42.140;24.760;2023-03-15T09:16:35;98351.19;;;11.32;65.48
5753;BME280;2901;42.140;24.760;2023-03-15T09:19:01;98350.91;;;11.41;64.83
5753;BME280;2901;42.140;24.760;2023-03-15T09:21:26;98337.88;;;11.44;62.87
5753;BME280;2901;42.140;24.760;2023-03-15T09:23:53;98342.78;;;11.54;64.46
5753;BME280;2901;42.140;24.760;2023-03-15T09:26:18;98345.00;;;11.66;62.45
5753;BME280;2901;42.140;24.760;2023-03-15T09:28:43;98344.41;;;11.87;61.03
5753;BME280;2901;42.140;24.760;2023-03-15T09:31:09;98348.00;;;12.11;61.36
5753;BME280;2901;42.140;24.760;2023-03-15T09:33:35;98336.19;;;12.28;60.67
5753;BME280;2901;42.140;24.760;2023-03-15T09:36:01;98342.06;;;12.61;60.65
5753;BME280;2901;42.140;24.760;2023-03-15T09:38:26;98340.31;;;13.13;58.28
5753;BME280;2901;42.140;24.760;2023-03-15T09:40:57;98342.56;;;13.22;56.48
5753;BME280;2901;42.140;24.760;2023-03-15T09:46:14;98336.41;;;12.99;56.29
5753;BME280;2901;42.140;24.760;2023-03-15T09:49:18;98328.97;;;12.64;58.52
5753;BME280;2901;42.140;24.760;2023-03-15T09:51:58;98330.94;;;12.82;57.96
5753;BME280;2901;42.140;24.760;2023-03-15T09:54:40;98321.03;;;12.93;57.96
5753;BME280;2901;42.140;24.760;2023-03-15T09:57:16;98319.91;;;13.00;58.32
5753;BME280;2901;42.140;24.760;2023-03-15T09:59:48;98321.28;;;13.11;56.47
5753;BME280;2901;42.140;24.760;2023-03-15T10:02:24;98319.03;;;13.26;56.54
5753;BME280;2901;42.140;24.760;2023-03-15T10:05:00;98301.69;;;13.27;55.56
5753;BME280;2901;42.140;24.760;2023-03-15T10:07:28;98294.94;;;12.96;56.14
5753;BME280;2901;42.140;24.760;2023-03-15T10:09:53;98291.44;;;12.73;58.24
5753;BME280;2901;42.140;24.760;2023-03-15T10:12:28;98291.97;;;12.82;57.65
5753;BME280;2901;42.140;24.760;2023-03-15T10:20:20;98294.63;;;13.30;54.73
5753;BME280;2901;42.140;24.760;2023-03-15T10:23:22;98299.50;;;13.38;54.01
5753;BME280;2901;42.140;24.760;2023-03-15T10:25:53;98304.28;;;13.50;52.56
5753;BME280;2901;42.140;24.760;2023-03-15T10:28:28;98293.03;;;13.26;52.52
5753;BME280;2901;42.140;24.760;2023-03-15T10:30:58;98298.75;;;13.11;52.92
5753;BME280;2901;42.140;24.760;2023-03-15T10:33:31;98291.03;;;13.08;53.19
5753;BME280;2901;42.140;24.760;2023-03-15T10:35:58;98292.75;;;12.84;53.46
5753;BME280;2901;42.140;24.760;2023-03-15T10:38:25;98293.75;;;12.56;54.47
5753;BME280;2901;42.140;24.760;2023-03-15T10:40:53;98293.19;;;12.47;55.90
5753;BME280;2901;42.140;24.760;2023-03-15T10:46:10;98263.06;;;13.16;53.68
5753;BME280;2901;42.140;24.760;2023-03-15T10:48:50;98268.50;;;13.10;52.62
5753;BME280;2901;42.140;24.760;2023-03-15T10:51:24;98264.38;;;13.03;52.64
5753;BME280;2901;42.140;24.760;2023-03-15T10:53:59;98253.44;;;13.18;53.17
5753;BME280;2901;42.140;24.760;2023-03-15T10:56:29;98250.50;;;13.50;50.85
5753;BME280;2901;42.140;24.760;2023-03-15T10:58:56;98259.22;;;13.49;50.80
5753;BME280;2901;42.140;24.760;2023-03-15T11:01:27;98257.69;;;13.44;51.20
5753;BME280;2901;42.140;24.760;2023-03-15T11:04:03;98260.56;;;13.60;51.26
5753;BME280;2901;42.140;24.760;2023-03-15T11:06:40;98257.53;;;13.92;50.20
5753;BME280;2901;42.140;24.760;2023-03-15T11:09:17;98252.19;;;14.17;49.28
5753;BME280;2901;42.140;24.760;2023-03-15T11:12:03;98253.00;;;14.19;48.53
5753;BME280;2901;42.140;24.760;2023-03-15T11:14:41;98260.44;;;14.06;47.71
5753;BME280;2901;42.140;24.760;2023-03-15T11:17:16;98261.69;;;13.52;49.03
5753;BME280;2901;42.140;24.760;2023-03-15T11:19:48;98261.19;;;13.43;49.96
5753;BME280;2901;42.140;24.760;2023-03-15T11:22:16;98255.03;;;13.22;50.76
5753;BME280;2901;42.140;24.760;2023-03-15T11:24:42;98259.47;;;12.95;50.59
5753;BME280;2901;42.140;24.760;2023-03-15T11:27:13;98255.66;;;13.04;50.77
5753;BME280;2901;42.140;24.760;2023-03-15T11:29:42;98251.22;;;13.08;49.88
5753;BME280;2901;42.140;24.760;2023-03-15T11:32:16;98256.44;;;13.31;50.05
5753;BME280;2901;42.140;24.760;2023-03-15T11:34:44;98242.63;;;13.52;50.82
5753;BME280;2901;42.140;24.760;2023-03-15T11:40:16;98241.25;;;13.43;50.61
5753;BME280;2901;42.140;24.760;2023-03-15T11:42:47;98234.00;;;13.51;51.32
5753;BME280;2901;42.140;24.760;2023-03-15T11:45:56;98232.06;;;13.57;50.92
5753;BME280;2901;42.140;24.760;2023-03-15T11:48:30;98233.97;;;13.73;50.77
5753;BME280;2901;42.140;24.760;2023-03-15T11:50:59;98237.19;;;13.58;51.25
5753;BME280;2901;42.140;24.760;2023-03-15T11:53:30;98229.16;;;13.42;51.33
5753;BME280;2901;42.140;24.760;2023-03-15T11:56:23;98226.38;;;13.24;52.36
5753;BME280;2901;42.140;24.760;2023-03-15T12:01:30;98212.41;;;13.03;52.71
5753;BME280;2901;42.140;24.760;2023-03-15T12:07:03;98214.78;;;12.86;55.03
5753;BME280;2901;42.140;24.760;2023-03-15T12:17:37;98196.56;;;12.87;56.30
5753;BME280;2901;42.140;24.760;2023-03-15T12:20:16;98201.22;;;13.01;56.54
5753;BME280;2901;42.140;24.760;2023-03-15T12:25:18;98191.19;;;13.15;55.59
5753;BME280;2901;42.140;24.760;2023-03-15T12:27:49;98197.34;;;12.89;55.95
5753;BME280;2901;42.140;24.760;2023-03-15T12:30:30;98196.00;;;12.78;57.00
5753;BME280;2901;42.140;24.760;2023-03-15T12:32:56;98204.72;;;12.77;56.81
5753;BME280;2901;42.140;24.760;2023-03-15T12:35:28;98192.28;;;12.85;57.04
5753;BME280;2901;42.140;24.760;2023-03-15T12:37:55;98188.84;;;12.84;56.72
5753;BME280;2901;42.140;24.760;2023-03-15T12:43:40;98170.97;;;12.77;56.54
5753;BME280;2901;42.140;24.760;2023-03-15T12:51:59;98176.94;;;13.02;54.92
5753;BME280;2901;42.140;24.760;2023-03-15T12:54:33;98171.19;;;12.94;53.74
5753;BME280;2901;42.140;24.760;2023-03-15T12:57:03;98170.50;;;12.89;54.18
5753;BME280;2901;42.140;24.760;2023-03-15T12:59:37;98171.38;;;12.88;53.45
5753;BME280;2901;42.140;24.760;2023-03-15T13:02:28;98168.06;;;12.84;53.31
5753;BME280;2901;42.140;24.760;2023-03-15T13:05:22;98170.84;;;13.03;52.89
5753;BME280;2901;42.140;24.760;2023-03-15T13:19:26;98160.31;;;13.29;51.78
5753;BME280;2901;42.140;24.760;2023-03-15T13:24:43;98153.50;;;13.27;51.55
5753;BME280;2901;42.140;24.760;2023-03-15T13:27:25;98160.25;;;13.31;51.71
5753;BME280;2901;42.140;24.760;2023-03-15T13:29:53;98160.91;;;13.14;51.81
5753;BME280;2901;42.140;24.760;2023-03-15T13:32:21;98153.44;;;13.05;51.95
5753;BME280;2901;42.140;24.760;2023-03-15T13:34:47;98142.38;;;13.00;52.70
5753;BME280;2901;42.140;24.760;2023-03-15T13:37:21;98145.44;;;13.11;51.67
5753;BME280;2901;42.140;24.760;2023-03-15T13:39:59;98149.00;;;13.09;52.23
5753;BME280;2901;42.140;24.760;2023-03-15T13:42:25;98145.59;;;13.07;52.20
5753;BME280;2901;42.140;24.760;2023-03-15T13:45:12;98143.69;;;13.12;51.82
5753;BME280;2901;42.140;24.760;2023-03-15T13:47:42;98137.09;;;13.01;52.54
5753;BME280;2901;42.140;24.760;2023-03-15T13:50:19;98134.34;;;13.06;52.45
5753;BME280;2901;42.140;24.760;2023-03-15T13:52:45;98136.19;;;13.26;51.95
5753;BME280;2901;42.140;24.760;2023-03-15T13:55:14;98145.88;;;13.22;50.42
5753;BME280;2901;42.140;24.760;2023-03-15T13:57:40;98139.66;;;13.26;50.64
5753;BME280;2901;42.140;24.760;2023-03-15T14:00:15;98134.38;;;13.28;51.34
5753;BME280;2901;42.140;24.760;2023-03-15T14:02:57;98134.88;;;13.16;51.75
5753;BME280;2901;42.140;24.760;2023-03-15T14:05:42;98136.38;;;13.21;52.00
5753;BME280;2901;42.140;24.760;2023-03-15T14:08:31;98126.19;;;13.17;52.53
5753;BME280;2901;42.140;24.760;2023-03-15T14:11:06;98122.41;;;13.24;52.85
5753;BME280;2901;42.140;24.760;2023-03-15T14:13:46;98129.06;;;13.31;52.53
5753;BME280;2901;42.140;24.760;2023-03-15T14:16:28;98127.19;;;13.34;52.25
5753;BME280;2901;42.140;24.760;2023-03-15T14:19:07;98126.28;;;13.14;52.65
5753;BME280;2901;42.140;24.760;2023-03-15T14:21:32;98127.13;;;13.14;52.40
5753;BME280;2901;42.140;24.760;2023-03-15T14:24:04;98131.41;;;13.15;52.40
5753;BME280;2901;42.140;24.760;2023-03-15T14:26:30;98127.97;;;13.15;51.97
5753;BME280;2901;42.140;24.760;2023-03-15T14:31:48;98134.38;;;13.28;52.15